Time;durP1;ratioP1;P1;durP2;ratioP2;P2;SDS_P1;SDS_P2;PMS_P1;PMS_P2;Temp;Humidity;BMP_temperature;BMP_pressure;BME280_temperature;BME280_humidity;BME280_pressure;Samples;Min_cycle;Max_cycle;Signal;HPM_P1;HPM_P2
2023/09/21 00:04:49;;;;;;;5.43;4.32;;;;;;;13.73;100.00;97598.31;10276249;28;20524;-81
2023/09/21 00:09:49;;;;;;;4.87;4.30;;;;;;;13.76;100.00;97597.59;10272418;28;20417;-82
2023/09/21 00:14:50;;;;;;;5.45;4.35;;;;;;;13.73;100.00;97586.75;10271790;28;20043;-82
2023/09/21 00:19:50;;;;;;;4.68;4.20;;;;;;;13.59;100.00;97587.28;10282089;28;20039;-79
2023/09/21 00:24:52;;;;;;;4.65;4.13;;;;;;;13.61;100.00;97580.38;10279742;28;20050;-80
2023/09/21 00:29:52;;;;;;;5.60;4.55;;;;;;;13.66;100.00;97574.69;10278936;28;20039;-83
2023/09/21 00:34:53;;;;;;;6.15;4.63;;;;;;;13.66;100.00;97574.69;10258492;28;20091;-82
2023/09/21 00:39:53;;;;;;;5.60;4.10;;;;;;;13.53;100.00;97559.03;10280007;28;20046;-82
2023/09/21 00:44:56;;;;;;;4.97;4.47;;;;;;;-144.32;100.00;68061.97;10273022;28;20043;-80
2023/09/21 00:49:57;;;;;;;5.35;4.22;;;;;;;-144.32;100.00;68061.97;10261423;28;20051;-78
2023/09/21 00:54:59;;;;;;;6.38;4.95;;;;;;;-144.32;100.00;68061.97;10268700;28;20035;-81
2023/09/21 01:00:04;;;;;;;7.45;4.90;;;;;;;-144.32;100.00;68061.97;10278397;28;20539;-80
2023/09/21 01:05:08;;;;;;;4.80;4.30;;;;;;;-144.32;100.00;68061.97;10284521;28;20034;-81
2023/09/21 01:10:13;;;;;;;5.65;4.47;;;;;;;-144.32;100.00;68061.97;10300352;28;20195;-79
2023/09/21 01:15:13;;;;;;;5.35;4.47;;;;;;;-144.32;100.00;68061.97;10271096;28;20161;-80
2023/09/21 01:20:29;;;;;;;5.82;4.47;;;;;;;-144.32;100.00;68061.97;10264328;28;20062;-83
2023/09/21 01:25:30;;;;;;;4.82;4.30;;;;;;;-144.32;100.00;68061.97;10262904;28;20570;-81
2023/09/21 01:30:30;;;;;;;4.93;4.05;;;;;;;-144.32;100.00;68061.97;10285235;28;20033;-79
2023/09/21 01:35:33;;;;;;;6.90;4.45;;;;;;;-144.32;100.00;68061.97;10286363;28;20131;-83
2023/09/21 01:40:36;;;;;;;4.53;4.03;;;;;;;-144.32;100.00;68061.97;10275623;28;20554;-80
2023/09/21 01:45:39;;;;;;;4.88;4.35;;;;;;;-144.32;100.00;68061.97;10325407;28;20087;-79
2023/09/21 01:50:47;;;;;;;7.85;4.70;;;;;;;-144.32;100.00;68061.97;10308207;28;20047;-81
2023/09/21 01:55:49;;;;;;;4.93;4.15;;;;;;;-144.32;100.00;68061.97;10283840;28;20862;-83
2023/09/21 02:00:51;;;;;;;5.18;4.00;;;;;;;-144.32;100.00;68061.97;10251105;28;20051;-82
2023/09/21 02:05:54;;;;;;;5.35;4.40;;;;;;;-144.32;100.00;68061.97;10265128;28;20051;-82
2023/09/21 02:10:57;;;;;;;5.47;4.03;;;;;;;-144.32;100.00;68061.97;10273429;28;20099;-81
2023/09/21 02:15:57;;;;;;;4.22;3.90;;;;;;;-144.32;100.00;68061.97;10256015;28;20042;-80
2023/09/21 02:20:59;;;;;;;6.80;5.10;;;;;;;-144.32;100.00;68061.97;10266267;28;20050;-81
2023/09/21 02:26:00;;;;;;;8.10;4.55;;;;;;;-144.32;100.00;68061.97;10263511;28;20042;-79
2023/09/21 02:31:06;;;;;;;5.43;4.63;;;;;;;-144.32;100.00;68061.97;10265438;28;20054;-82
2023/09/21 02:36:14;;;;;;;4.90;3.97;;;;;;;-144.32;100.00;68061.97;10261995;28;20046;-82
2023/09/21 02:41:15;;;;;;;5.75;4.35;;;;;;;-144.32;100.00;68061.97;10254567;28;20050;-81
2023/09/21 02:46:18;;;;;;;6.00;4.38;;;;;;;-144.32;100.00;68061.97;10250537;28;20080;-81
2023/09/21 02:51:22;;;;;;;5.18;4.38;;;;;;;-144.32;100.00;68061.97;10219663;28;20464;-80
2023/09/21 02:56:24;;;;;;;;;;;;;;;-144.32;100.00;68061.97;10248740;28;20486;-82
2023/09/21 03:01:25;;;;;;;5.75;4.10;;;;;;;-144.32;100.00;68061.97;10249683;28;20001;-84
2023/09/21 03:06:26;;;;;;;5.07;4.57;;;;;;;-144.32;100.00;68061.97;10250602;28;20043;-82
2023/09/21 03:11:26;;;;;;;6.85;4.53;;;;;;;-144.32;100.00;68061.97;10268262;28;20243;-80
2023/09/21 03:16:28;;;;;;;4.53;4.13;;;;;;;-144.32;100.00;68061.97;10265746;28;20116;-79
2023/09/21 03:21:30;;;;;;;6.03;5.03;;;;;;;-144.32;100.00;68061.97;10249566;28;20571;-80
2023/09/21 03:26:31;;;;;;;4.30;3.90;;;;;;;-144.32;100.00;68061.97;10258084;28;20077;-79
2023/09/21 03:31:32;;;;;;;4.60;4.10;;;;;;;-144.32;100.00;68061.97;10263147;28;20114;-81
2023/09/21 03:36:38;;;;;;;5.40;4.57;;;;;;;-144.32;100.00;68061.97;10259197;28;20054;-82
2023/09/21 03:41:38;;;;;;;;;;;;;;;-144.32;100.00;68061.97;10260246;28;20054;-82
2023/09/21 03:46:39;;;;;;;5.35;4.15;;;;;;;-144.32;100.00;68061.97;10289306;28;19926;-85
2023/09/21 03:51:39;;;;;;;4.93;4.30;;;;;;;-144.32;100.00;68061.97;10262337;28;20051;-83
2023/09/21 03:56:42;;;;;;;6.40;4.90;;;;;;;-144.32;100.00;68061.97;10271832;28;20094;-82
2023/09/21 04:01:45;;;;;;;4.60;4.13;;;;;;;-144.32;100.00;68061.97;10269029;28;20526;-82
2023/09/21 04:06:46;;;;;;;4.63;4.15;;;;;;;-144.32;100.00;68061.97;10268876;28;20051;-82
2023/09/21 04:11:51;;;;;;;4.20;3.80;;;;;;;-144.32;100.00;68061.97;10286470;28;20043;-83
2023/09/21 04:16:52;;;;;;;4.07;3.70;;;;;;;-144.32;100.00;68061.97;10264346;28;20043;-80
2023/09/21 04:21:53;;;;;;;4.28;3.88;;;;;;;-144.32;100.00;68061.97;10252185;28;20126;-82
2023/09/21 04:26:53;;;;;;;4.22;3.60;;;;;;;-144.32;100.00;68061.97;10241946;28;20524;-81
2023/09/21 04:31:54;;;;;;;5.53;4.30;;;;;;;-144.32;100.00;68061.97;10278775;28;20027;-88
2023/09/21 04:36:56;;;;;;;5.43;3.95;;;;;;;-144.32;100.00;68061.97;10614234;23;20162;-81
2023/09/21 04:41:56;;;;;;;5.35;4.25;;;;;;;-144.32;100.00;68061.97;10191662;28;20096;-79
2023/09/21 04:46:57;;;;;;;4.07;3.67;;;;;;;-144.32;100.00;68061.97;10202185;29;20604;-85
2023/09/21 04:51:59;;;;;;;6.85;4.60;;;;;;;-144.32;100.00;68061.97;10210514;29;20134;-84
2023/09/21 04:57:00;;;;;;;5.83;4.60;;;;;;;-144.32;100.00;68061.97;10197964;29;20772;-83
2023/09/21 05:02:00;;;;;;;6.30;4.63;;;;;;;-144.32;100.00;68061.97;10216454;29;20682;-85
2023/09/21 05:07:01;;;;;;;6.15;4.28;;;;;;;-144.32;100.00;68061.97;10232395;29;20047;-84
2023/09/21 05:12:05;;;;;;;5.80;4.35;;;;;;;-144.32;100.00;68061.97;10226845;28;20894;-83
2023/09/21 05:17:06;;;;;;;4.28;3.80;;;;;;;-144.32;100.00;68061.97;10200091;28;20047;-83
2023/09/21 05:22:08;;;;;;;5.60;4.35;;;;;;;-144.32;100.00;68061.97;10199610;28;20048;-80
2023/09/21 05:27:09;;;;;;;7.10;5.40;;;;;;;-144.32;100.00;68061.97;10196055;29;20039;-82
2023/09/21 05:32:09;;;;;;;5.28;4.20;;;;;;;-144.32;100.00;68061.97;10197743;29;20469;-80
2023/09/21 05:37:10;;;;;;;6.95;5.15;;;;;;;-144.32;100.00;68061.97;10171964;29;20040;-80
2023/09/21 05:42:11;;;;;;;5.18;4.53;;;;;;;-144.32;100.00;68061.97;10181442;29;20070;-81
2023/09/21 05:47:11;;;;;;;6.05;5.30;;;;;;;-144.32;100.00;68061.97;10179444;29;20044;-82
2023/09/21 05:52:12;;;;;;;8.30;5.90;;;;;;;-144.32;100.00;68061.97;10173267;29;20548;-79
2023/09/21 05:57:13;;;;;;;7.32;5.38;;;;;;;-144.32;100.00;68061.97;10170254;29;20048;-80
2023/09/21 06:02:13;;;;;;;6.47;5.20;;;;;;;-144.32;100.00;68061.97;10159720;29;20110;-79
2023/09/21 06:07:16;;;;;;;7.25;5.68;;;;;;;-144.32;100.00;68061.97;10192711;29;20210;-79
2023/09/21 06:12:17;;;;;;;6.90;4.82;;;;;;;-144.32;100.00;68061.97;10175902;29;20159;-79
2023/09/21 06:17:18;;;;;;;6.05;4.50;;;;;;;-144.32;100.00;68061.97;10170940;29;20048;-79
2023/09/21 06:22:19;;;;;;;6.15;4.93;;;;;;;-144.32;100.00;68061.97;10176639;29;20047;-79
2023/09/21 06:27:19;;;;;;;6.40;5.13;;;;;;;-144.32;100.00;68061.97;10174305;29;20097;-78
2023/09/21 06:32:23;;;;;;;8.02;5.45;;;;;;;-144.32;100.00;68061.97;10175745;29;20055;-78
2023/09/21 06:37:26;;;;;;;7.53;5.40;;;;;;;-144.32;100.00;68061.97;10171160;29;20693;-78
2023/09/21 06:42:27;;;;;;;9.18;6.32;;;;;;;-144.32;100.00;68061.97;10170864;29;20040;-78
2023/09/21 06:47:28;;;;;;;8.18;6.40;;;;;;;-144.32;100.00;68061.97;10174105;29;20036;-78
2023/09/21 06:52:29;;;;;;;7.25;5.07;;;;;;;-144.32;100.00;68061.97;10173137;29;20039;-77
2023/09/21 06:57:29;;;;;;;5.95;5.28;;;;;;;-144.32;100.00;68061.97;10164861;29;20051;-77
2023/09/21 07:02:30;;;;;;;7.05;5.18;;;;;;;-144.32;100.00;68061.97;10163686;29;20556;-78
2023/09/21 07:07:31;;;;;;;6.75;4.70;;;;;;;-144.32;100.00;68061.97;10168967;29;20127;-78
2023/09/21 07:12:32;;;;;;;5.35;3.78;;;;;;;-144.32;100.00;68061.97;10166634;29;20040;-78
2023/09/21 07:17:33;;;;;;;8.88;5.63;;;;;;;-144.32;100.00;68061.97;10173366;29;20044;-77
2023/09/21 07:22:34;;;;;;;6.60;5.27;;;;;;;-144.32;100.00;68061.97;10164905;29;20040;-77
2023/09/21 07:27:34;;;;;;;7.72;5.60;;;;;;;-144.32;100.00;68061.97;10170989;29;20966;-80
2023/09/21 07:32:35;;;;;;;5.45;4.47;;;;;;;-144.32;100.00;68061.97;10164632;29;20051;-77
2023/09/21 07:37:35;;;;;;;6.43;5.22;;;;;;;-144.32;100.00;68061.97;10176183;29;20044;-81
2023/09/21 07:42:39;;;;;;;10.05;6.93;;;;;;;-144.32;100.00;68061.97;10192368;29;20100;-84
2023/09/21 07:47:41;;;;;;;7.65;5.03;;;;;;;-144.32;100.00;68061.97;10174845;29;20048;-84
2023/09/21 07:52:43;;;;;;;10.63;7.93;;;;;;;-144.32;100.00;68061.97;10183553;29;20087;-83
2023/09/21 07:57:47;;;;;;;6.95;5.70;;;;;;;-144.32;100.00;68061.97;10177212;29;20531;-84
2023/09/21 08:02:47;;;;;;;5.00;4.35;;;;;;;-144.32;100.00;68061.97;10180976;29;20043;-84
2023/09/21 08:07:49;;;;;;;6.78;5.30;;;;;;;-144.32;100.00;68061.97;10188912;29;20421;-82
2023/09/21 08:12:50;;;;;;;6.80;4.73;;;;;;;-144.32;100.00;68061.97;10191234;29;20051;-83
2023/09/21 08:17:52;;;;;;;13.93;10.05;;;;;;;-144.32;100.00;68061.97;10219844;29;20056;-82
2023/09/21 08:22:53;;;;;;;6.47;5.80;;;;;;;-144.32;100.00;68061.97;10209848;29;20063;-84
2023/09/21 08:27:55;;;;;;;6.53;5.13;;;;;;;-144.32;100.00;68061.97;10189417;29;20637;-82
2023/09/21 08:32:57;;;;;;;5.85;4.63;;;;;;;-144.32;100.00;68061.97;10180626;29;20608;-82
2023/09/21 08:37:58;;;;;;;4.82;4.28;;;;;;;-144.32;100.00;68061.97;10181606;29;20122;-81
2023/09/21 08:43:00;;;;;;;5.22;4.05;;;;;;;-144.32;100.00;68061.97;10180411;29;20079;-84
2023/09/21 08:48:02;;;;;;;5.38;4.43;;;;;;;-144.32;100.00;68061.97;10170123;29;20536;-83
2023/09/21 08:53:08;;;;;;;5.03;4.15;;;;;;;-144.32;100.00;68061.97;10170217;29;20072;-83
2023/09/21 08:58:11;;;;;;;4.80;3.67;;;;;;;-144.32;100.00;68061.97;10171543;29;20104;-83
2023/09/21 09:03:12;;;;;;;5.43;4.40;;;;;;;-144.32;100.00;68061.97;10201843;29;20522;-82
2023/09/21 09:08:12;;;;;;;4.68;3.90;;;;;;;-144.32;100.00;68061.97;10200993;29;20071;-80
2023/09/21 09:13:13;;;;;;;4.55;3.40;;;;;;;-144.32;100.00;68061.97;10187171;29;20052;-82
2023/09/21 09:18:14;;;;;;;4.35;3.10;;;;;;;-144.32;100.00;68061.97;10202358;29;20074;-84
2023/09/21 09:23:16;;;;;;;4.65;3.72;;;;;;;-144.32;100.00;68061.97;10194466;29;20063;-85
2023/09/21 09:28:16;;;;;;;4.32;3.92;;;;;;;-144.32;100.00;68061.97;10198578;29;20052;-84
2023/09/21 09:33:18;;;;;;;5.40;3.70;;;;;;;-144.32;100.00;68061.97;10193828;29;20056;-85
2023/09/21 09:38:20;;;;;;;4.70;4.17;;;;;;;-144.32;100.00;68061.97;10183490;29;20738;-83
2023/09/21 09:43:22;;;;;;;6.78;4.10;;;;;;;-144.32;100.00;68061.97;10187972;29;20052;-82
2023/09/21 09:48:23;;;;;;;4.45;3.70;;;;;;;-144.32;100.00;68061.97;10179272;29;20056;-82
2023/09/21 09:53:25;;;;;;;5.10;4.20;;;;;;;-144.32;100.00;68061.97;10183176;28;20044;-82
2023/09/21 09:58:27;;;;;;;3.40;3.10;;;;;;;-144.32;100.00;68061.97;10183002;29;20044;-81
2023/09/21 10:03:32;;;;;;;4.00;3.60;;;;;;;-144.32;100.00;68061.97;10174024;29;20059;-81
2023/09/21 10:08:33;;;;;;;4.05;3.53;;;;;;;-144.32;100.00;68061.97;10177720;29;20056;-81
2023/09/21 10:13:48;;;;;;;3.88;3.40;;;;;;;-144.32;100.00;68061.97;10177656;29;20044;-81
2023/09/21 10:18:55;;;;;;;3.90;3.13;;;;;;;-144.32;100.00;68061.97;10179288;29;20052;-82
2023/09/21 10:24:18;;;;;;;5.20;3.42;;;;;;;-144.32;100.00;68061.97;10165482;29;20044;-79
2023/09/21 10:29:20;;;;;;;4.50;3.28;;;;;;;-144.32;100.00;68061.97;10178793;29;20537;-80
2023/09/21 10:34:23;;;;;;;;;;;;;;;-144.32;100.00;68061.97;10188640;29;20048;-82
2023/09/21 10:39:25;;;;;;;5.55;3.30;;;;;;;-144.32;100.00;68061.97;10180484;29;19938;-85
2023/09/21 10:44:53;;;;;;;4.97;3.10;;;;;;;-144.32;100.00;68061.97;10200176;29;20048;-82
2023/09/21 10:49:55;;;;;;;3.15;2.85;;;;;;;-144.32;100.00;68061.97;10182026;28;20071;-81
2023/09/21 10:54:59;;;;;;;4.88;3.03;;;;;;;-144.32;100.00;68061.97;10187678;29;20040;-81
2023/09/21 10:59:59;;;;;;;3.95;2.80;;;;;;;-144.32;100.00;68061.97;10202052;29;20051;-80
2023/09/21 11:05:00;;;;;;;3.70;2.63;;;;;;;-144.32;100.00;68061.97;10194194;28;20051;-82
2023/09/21 11:10:02;;;;;;;7.43;5.00;;;;;;;-144.32;100.00;68061.97;10188964;29;20036;-82
2023/09/21 11:15:06;;;;;;;3.65;2.67;;;;;;;-144.32;100.00;68061.97;10186296;29;20047;-83
2023/09/21 11:20:08;;;;;;;3.83;2.65;;;;;;;-144.32;100.00;68061.97;10179711;29;20039;-82
2023/09/21 11:25:11;;;;;;;3.28;2.53;;;;;;;-144.32;100.00;68061.97;10191868;29;20047;-84
2023/09/21 11:30:14;;;;;;;3.67;2.17;;;;;;;-144.32;100.00;68061.97;10190670;29;20055;-84
2023/09/21 11:35:18;;;;;;;2.50;2.30;;;;;;;-144.32;100.00;68061.97;10168572;29;20552;-82
2023/09/21 11:40:21;;;;;;;4.05;2.70;;;;;;;-144.32;100.00;68061.97;10171979;29;20929;-82
2023/09/21 11:45:24;;;;;;;3.15;2.65;;;;;;;-144.32;100.00;68061.97;10172589;29;20060;-85
2023/09/21 11:50:26;;;;;;;5.85;2.60;;;;;;;-144.32;100.00;68061.97;10164992;29;20056;-81
2023/09/21 11:55:29;;;;;;;2.80;2.60;;;;;;;-144.32;100.00;68061.97;10159156;29;20130;-75
2023/09/21 12:00:43;;;;;;;3.22;2.40;;;;;;;-144.32;100.00;68061.97;10149121;29;20063;-78
2023/09/21 12:05:44;;;;;;;2.58;2.38;;;;;;;-144.32;100.00;68061.97;10173824;29;20151;-77
2023/09/21 12:10:47;;;;;;;4.33;2.63;;;;;;;-144.32;100.00;68061.97;10162538;29;20429;-78
2023/09/21 12:15:50;;;;;;;2.50;2.17;;;;;;;-144.32;100.00;68061.97;10159487;29;20071;-78
2023/09/21 12:20:56;;;;;;;2.78;2.45;;;;;;;-144.32;100.00;68061.97;10157626;29;20064;-77
2023/09/21 12:25:57;;;;;;;3.42;2.60;;;;;;;-144.32;100.00;68061.97;10155842;29;20040;-78
2023/09/21 12:30:57;;;;;;;3.13;2.30;;;;;;;-144.32;100.00;68061.97;10169700;29;20548;-77
2023/09/21 12:36:00;;;;;;;2.90;2.37;;;;;;;-144.32;100.00;68061.97;10182963;29;20047;-76
2023/09/21 12:41:00;;;;;;;4.82;2.88;;;;;;;-144.32;100.00;68061.97;10178042;28;20047;-76
2023/09/21 12:46:02;;;;;;;4.80;2.93;;;;;;;-144.32;100.00;68061.97;10195029;29;20036;-82
2023/09/21 12:51:03;;;;;;;4.05;3.05;;;;;;;-144.32;100.00;68061.97;10211345;28;20063;-81
2023/09/21 12:56:05;;;;;;;4.47;3.10;;;;;;;-144.32;100.00;68061.97;10220398;29;20028;-83
2023/09/21 13:01:06;;;;;;;3.70;3.08;;;;;;;-144.32;100.00;68061.97;10196358;29;20283;-82
2023/09/21 13:06:06;;;;;;;6.27;2.93;;;;;;;-144.32;100.00;68061.97;10226496;28;20028;-83
2023/09/21 13:11:08;;;;;;;4.30;2.90;;;;;;;-144.32;100.00;68061.97;10220839;29;20084;-86
2023/09/21 13:16:11;;;;;;;3.58;2.60;;;;;;;-144.32;100.00;68061.97;10233509;28;20039;-80
2023/09/21 13:21:11;;;;;;;2.95;2.65;;;;;;;-144.32;100.00;68061.97;10212805;29;20062;-81
2023/09/21 13:26:12;;;;;;;3.27;2.80;;;;;;;-144.32;100.00;68061.97;10193689;29;20051;-81
2023/09/21 13:31:14;;;;;;;3.15;2.63;;;;;;;-144.32;100.00;68061.97;10189731;29;20044;-83
2023/09/21 13:36:17;;;;;;;3.50;2.50;;;;;;;-144.32;100.00;68061.97;10184764;29;20127;-83
2023/09/21 13:41:18;;;;;;;4.30;2.50;;;;;;;-144.32;100.00;68061.97;10196323;29;20360;-82
2023/09/21 13:46:18;;;;;;;2.93;2.50;;;;;;;-144.32;100.00;68061.97;10192569;29;20067;-80
2023/09/21 13:51:19;;;;;;;5.37;2.70;;;;;;;-144.32;100.00;68061.97;10189721;29;20048;-82
2023/09/21 13:56:19;;;;;;;3.07;2.67;;;;;;;-144.32;100.00;68061.97;10185738;29;20059;-81
2023/09/21 14:01:20;;;;;;;4.57;2.80;;;;;;;-144.32;100.00;68061.97;10180777;29;20078;-81
2023/09/21 14:06:21;;;;;;;2.87;2.60;;;;;;;-144.32;100.00;68061.97;10183595;29;20349;-85
2023/09/21 14:11:22;;;;;;;3.28;2.47;;;;;;;-144.32;100.00;68061.97;10175127;29;20044;-82
2023/09/21 14:16:23;;;;;;;5.27;3.50;;;;;;;-144.32;100.00;68061.97;10184328;29;20044;-82
2023/09/21 14:21:26;;;;;;;3.40;2.73;;;;;;;-144.32;100.00;68061.97;10217321;28;20070;-81
2023/09/21 14:26:28;;;;;;;3.35;2.50;;;;;;;-144.32;100.00;68061.97;10197503;29;20047;-82
2023/09/21 14:31:29;;;;;;;3.58;3.25;;;;;;;-144.32;100.00;68061.97;10172874;29;20040;-77
2023/09/21 14:36:30;;;;;;;3.43;3.13;;;;;;;-144.32;100.00;68061.97;10155156;29;20048;-76
2023/09/21 14:41:31;;;;;;;2.60;2.40;;;;;;;-144.32;100.00;68061.97;10161692;29;20044;-76
2023/09/21 14:46:31;;;;;;;3.33;2.60;;;;;;;-144.32;100.00;68061.97;10150624;29;20103;-76
2023/09/21 14:51:32;;;;;;;3.10;2.87;;;;;;;-144.32;100.00;68061.97;10156443;29;20036;-75
2023/09/21 14:56:32;;;;;;;3.70;2.60;;;;;;;-144.32;100.00;68061.97;10161793;29;20044;-78
2023/09/21 15:01:33;;;;;;;4.60;3.17;;;;;;;-144.32;100.00;68061.97;10161632;29;20052;-77
2023/09/21 15:06:37;;;;;;;3.00;2.70;;;;;;;-144.32;100.00;68061.97;10165171;29;20046;-78
2023/09/21 15:11:38;;;;;;;3.72;3.13;;;;;;;-144.32;100.00;68061.97;10168438;29;20071;-76
2023/09/21 15:16:40;;;;;;;5.63;3.03;;;;;;;-144.32;100.00;68061.97;10161353;29;20082;-78
2023/09/21 15:21:40;;;;;;;2.88;2.55;;;;;;;-144.32;100.00;68061.97;10155662;29;20059;-76
2023/09/21 15:26:41;;;;;;;2.90;2.53;;;;;;;-144.32;100.00;68061.97;10162156;29;20123;-79
2023/09/21 15:31:41;;;;;;;3.63;2.50;;;;;;;-144.32;100.00;68061.97;10158340;29;20063;-77
2023/09/21 15:36:42;;;;;;;3.20;2.50;;;;;;;-144.32;100.00;68061.97;10160571;29;20119;-78
2023/09/21 15:41:43;;;;;;;5.10;3.37;;;;;;;-144.32;100.00;68061.97;10157388;29;20051;-77
2023/09/21 15:46:43;;;;;;;3.63;2.93;;;;;;;-144.32;100.00;68061.97;10181972;29;20057;-78
2023/09/21 15:51:46;;;;;;;8.77;7.60;;;;;;;-144.32;100.00;68061.97;10170620;29;20513;-76
2023/09/21 15:56:46;;;;;;;6.72;4.60;;;;;;;-144.32;100.00;68061.97;10169387;29;20052;-79
2023/09/21 16:01:50;;;;;;;5.15;3.22;;;;;;;-144.32;100.00;68061.97;10169130;29;20732;-74
2023/09/21 16:06:50;;;;;;;2.90;2.70;;;;;;;-144.32;100.00;68061.97;10165650;29;20155;-76
2023/09/21 16:11:51;;;;;;;2.80;2.60;;;;;;;-144.32;100.00;68061.97;10160967;28;20036;-76
2023/09/21 16:16:52;;;;;;;4.27;2.90;;;;;;;-144.32;100.00;68061.97;10163413;29;20490;-74
2023/09/21 16:21:52;;;;;;;3.33;2.93;;;;;;;-144.32;100.00;68061.97;10168626;29;20075;-77
2023/09/21 16:26:56;;;;;;;3.92;3.22;;;;;;;-144.32;100.00;68061.97;10162563;29;20124;-74
2023/09/21 16:31:57;;;;;;;3.20;2.90;;;;;;;-144.32;100.00;68061.97;10164645;29;20106;-78
2023/09/21 16:37:00;;;;;;;3.92;2.90;;;;;;;-144.32;100.00;68061.97;10161889;29;20048;-76
2023/09/21 16:42:01;;;;;;;4.00;3.60;;;;;;;-144.32;100.00;68061.97;10159694;29;20063;-76
2023/09/21 16:47:01;;;;;;;3.75;3.15;;;;;;;-144.32;100.00;68061.97;10160209;29;20063;-83
2023/09/21 16:52:03;;;;;;;4.88;3.85;;;;;;;-144.32;100.00;68061.97;10174535;29;20123;-82
2023/09/21 16:57:03;;;;;;;4.03;3.60;;;;;;;-144.32;100.00;68061.97;10167156;29;20056;-83
2023/09/21 17:02:05;;;;;;;5.05;4.13;;;;;;;-144.32;100.00;68061.97;10184781;29;20051;-83
2023/09/21 17:07:06;;;;;;;3.70;3.40;;;;;;;-144.32;100.00;68061.97;10198327;29;20036;-83
2023/09/21 17:12:09;;;;;;;3.85;3.33;;;;;;;-144.32;100.00;68061.97;10176197;29;20048;-83
2023/09/21 17:17:10;;;;;;;4.35;3.80;;;;;;;-144.32;100.00;68061.97;10198537;29;20089;-82
2023/09/21 17:22:11;;;;;;;5.82;4.10;;;;;;;-144.32;100.00;68061.97;10212297;29;20052;-83
2023/09/21 17:27:11;;;;;;;4.50;4.10;;;;;;;-144.32;100.00;68061.97;10208241;29;20100;-83
2023/09/21 17:32:13;;;;;;;4.88;4.38;;;;;;;-144.32;100.00;68061.97;10220002;29;20029;-85
2023/09/21 17:37:13;;;;;;;4.95;3.67;;;;;;;-144.32;100.00;68061.97;10223646;28;20563;-82
2023/09/21 17:42:14;;;;;;;6.38;4.47;;;;;;;-144.32;100.00;68061.97;10202012;29;20052;-82
2023/09/21 17:47:14;;;;;;;4.43;4.03;;;;;;;-144.32;100.00;68061.97;10191453;29;20084;-84
2023/09/21 17:52:16;;;;;;;4.85;4.22;;;;;;;-144.32;100.00;68061.97;10199369;29;20052;-83
2023/09/21 17:57:17;;;;;;;4.40;4.00;;;;;;;-144.32;100.00;68061.97;10215062;29;20024;-86
2023/09/21 18:02:20;;;;;;;4.45;4.05;;;;;;;-144.32;100.00;68061.97;10204688;29;20131;-84
2023/09/21 18:07:22;;;;;;;4.70;4.30;;;;;;;-144.32;100.00;68061.97;10188466;28;20083;-83
2023/09/21 18:12:24;;;;;;;5.53;4.70;;;;;;;-144.32;100.00;68061.97;10196524;29;20039;-83
2023/09/21 18:17:25;;;;;;;;;;;;;;;-144.32;100.00;68061.97;10185433;29;20083;-83
2023/09/21 18:22:27;;;;;;;4.95;4.38;;;;;;;-144.32;100.00;68061.97;10190079;29;20412;-85
2023/09/21 18:27:28;;;;;;;11.10;9.38;;;;;;;-144.32;100.00;68061.97;10184816;29;20044;-86
2023/09/21 18:32:28;;;;;;;7.43;6.28;;;;;;;-144.32;100.00;68061.97;10183536;29;20918;-85
2023/09/21 18:37:29;;;;;;;6.18;5.57;;;;;;;-144.32;100.00;68061.97;10171441;28;20044;-81
2023/09/21 18:42:29;;;;;;;6.53;5.30;;;;;;;-144.32;100.00;68061.97;10166473;29;20497;-81
2023/09/21 18:47:30;;;;;;;5.30;4.80;;;;;;;-144.32;100.00;68061.97;10170327;29;20048;-83
2023/09/21 18:52:30;;;;;;;6.25;4.45;;;;;;;-144.32;100.00;68061.97;10178465;29;20448;-82
2023/09/21 18:57:31;;;;;;;5.25;4.70;;;;;;;-144.32;100.00;68061.97;10195739;29;20134;-84
2023/09/21 19:02:32;;;;;;;7.28;5.28;;;;;;;-144.32;100.00;68061.97;10204238;29;20059;-87
2023/09/21 19:07:33;;;;;;;7.72;6.40;;;;;;;-144.32;100.00;68061.97;10187523;29;20100;-83
2023/09/21 19:12:34;;;;;;;6.00;5.50;;;;;;;-144.32;100.00;68061.97;10177323;29;20456;-84
2023/09/21 19:17:38;;;;;;;5.40;4.90;;;;;;;-144.32;100.00;68061.97;10186019;29;20194;-89
2023/09/21 19:23:01;;;;;;;5.95;4.82;;;;;;;-144.32;100.00;68061.97;10196815;29;20076;-87
2023/09/21 19:28:03;;;;;;;7.15;4.72;;;;;;;-144.32;100.00;68061.97;10190866;29;20067;-83
2023/09/21 19:33:07;;;;;;;5.57;4.90;;;;;;;-144.32;100.00;68061.97;10187422;29;20054;-84
2023/09/21 19:38:08;;;;;;;5.88;5.00;;;;;;;-144.32;100.00;68061.97;10178248;29;20638;-81
2023/09/21 19:43:08;;;;;;;6.32;5.07;;;;;;;-144.32;100.00;68061.97;10181034;29;20048;-83
2023/09/21 19:48:10;;;;;;;6.97;5.15;;;;;;;-144.32;100.00;68061.97;10156187;29;20150;-83
2023/09/21 19:53:12;;;;;;;6.00;5.40;;;;;;;-144.32;100.00;68061.97;10159384;29;20085;-85
2023/09/21 19:58:14;;;;;;;;;;;;;;;-144.32;100.00;68061.97;10170931;29;21254;-82
2023/09/21 20:03:17;;;;;;;6.03;5.43;;;;;;;-144.32;100.00;68061.97;10176818;29;20021;-82
2023/09/21 20:08:23;;;;;;;6.13;5.13;;;;;;;-144.32;100.00;68061.97;10158007;29;20536;-81
2023/09/21 20:13:23;;;;;;;5.68;5.03;;;;;;;-144.32;100.00;68061.97;10172999;29;20071;-78
2023/09/21 20:18:24;;;;;;;6.93;5.40;;;;;;;-144.32;100.00;68061.97;10178894;29;20072;-86
2023/09/21 20:23:26;;;;;;;6.28;5.68;;;;;;;-144.32;100.00;68061.97;10203291;29;20047;-85
2023/09/21 20:28:27;;;;;;;6.30;5.40;;;;;;;-144.32;100.00;68061.97;10201341;29;20048;-83
2023/09/21 20:33:27;;;;;;;5.47;4.97;;;;;;;-144.32;100.00;68061.97;10170646;29;20060;-82
2023/09/21 20:38:28;;;;;;;6.28;5.32;;;;;;;-144.32;100.00;68061.97;10175970;29;20074;-83
2023/09/21 20:43:28;;;;;;;6.97;5.53;;;;;;;-144.32;100.00;68061.97;10182268;29;20104;-83
2023/09/21 20:48:29;;;;;;;6.90;5.65;;;;;;;-144.32;100.00;68061.97;10185663;28;20056;-82
2023/09/21 20:53:31;;;;;;;6.80;5.80;;;;;;;-144.32;100.00;68061.97;10182779;29;20048;-81
2023/09/21 20:58:33;;;;;;;8.80;5.78;;;;;;;-144.32;100.00;68061.97;10184475;29;20075;-83
2023/09/21 21:03:34;;;;;;;4.93;1.65;;;;;;;-144.32;100.00;68061.97;10186264;29;20119;-84
2023/09/21 21:08:34;;;;;;;2.80;1.20;;;;;;;-144.32;100.00;68061.97;10189950;29;20115;-81
2023/09/21 21:13:35;;;;;;;1.30;0.73;;;;;;;-144.32;100.00;68061.97;10186168;29;20066;-80
2023/09/21 21:18:35;;;;;;;1.95;0.75;;;;;;;-144.32;100.00;68061.97;10203713;29;20043;-80
2023/09/21 21:23:36;;;;;;;2.78;0.98;;;;;;;-144.32;100.00;68061.97;10177461;29;20138;-80
2023/09/21 21:28:37;;;;;;;1.98;0.88;;;;;;;-144.32;100.00;68061.97;10165500;29;20515;-81
2023/09/21 21:33:38;;;;;;;1.95;0.90;;;;;;;-144.32;100.00;68061.97;10192006;29;20080;-83
2023/09/21 21:38:40;;;;;;;3.10;1.27;;;;;;;-144.32;100.00;68061.97;10195789;29;20039;-83
2023/09/21 21:43:44;;;;;;;2.28;1.00;;;;;;;-144.32;100.00;68061.97;10177255;29;20052;-81
2023/09/21 21:48:46;;;;;;;3.08;1.42;;;;;;;-144.32;100.00;68061.97;10169789;29;20099;-80
2023/09/21 21:53:46;;;;;;;3.90;0.80;;;;;;;-144.32;100.00;68061.97;10171496;29;20048;-80
2023/09/21 21:58:47;;;;;;;1.88;0.80;;;;;;;-144.32;100.00;68061.97;10168534;29;20044;-81
2023/09/21 22:03:47;;;;;;;0.85;0.75;;;;;;;-144.32;100.00;68061.97;10183524;29;20040;-81
2023/09/21 22:08:53;;;;;;;1.25;0.80;;;;;;;-144.32;100.00;68061.97;10188138;29;20059;-81
2023/09/21 22:13:54;;;;;;;8.38;1.38;;;;;;;-144.32;100.00;68061.97;10177388;29;20051;-80
2023/09/21 22:18:54;;;;;;;2.28;1.08;;;;;;;-144.32;100.00;68061.97;10154985;29;20048;-80
2023/09/21 22:23:58;;;;;;;1.33;0.90;;;;;;;-144.32;100.00;68061.97;10154096;28;20047;-80
2023/09/21 22:28:59;;;;;;;2.22;1.10;;;;;;;-144.32;100.00;68061.97;10161237;29;20055;-79
2023/09/21 22:34:00;;;;;;;2.22;1.20;;;;;;;-144.32;100.00;68061.97;10153391;29;20048;-79
2023/09/21 22:39:00;;;;;;;2.38;1.00;;;;;;;-144.32;100.00;68061.97;10172852;29;20040;-81